Time;durP1;ratioP1;P1;durP2;ratioP2;P2;SDS_P1;SDS_P2;PMS_P1;PMS_P2;Temp;Humidity;BMP_temperature;BMP_pressure;BME280_temperature;BME280_humidity;BME280_pressure;Samples;Min_cycle;Max_cycle;Signal;HPM_P1;HPM_P2
2023/03/21 00:04:40;;;;;;;1.50;1.00;;;;;;;;;;10197346;29;20049;-84
2023/03/21 00:09:54;;;;;;;0.95;0.80;;;;;;;;;;10180535;29;20040;-84
2023/03/21 00:15:08;;;;;;;1.77;0.93;;;;;;;;;;10196514;29;20043;-88
2023/03/21 00:20:14;;;;;;;1.10;0.80;;;;;;;;;;10210506;29;20507;-87
2023/03/21 00:25:17;;;;;;;1.85;0.95;;;;;;;;;;10196619;29;20042;-86
2023/03/21 00:30:22;;;;;;;3.17;1.15;;;;;;;;;;10212659;29;20496;-87
2023/03/21 00:35:27;;;;;;;2.70;1.17;;;;;;;;;;10218374;29;20050;-87
2023/03/21 00:40:51;;;;;;;3.22;1.13;;;;;;;;;;10192846;29;20044;-85
2023/03/21 00:45:55;;;;;;;1.73;1.02;;;;;;;;;;10179636;29;20643;-85
2023/03/21 00:51:00;;;;;;;2.22;1.33;;;;;;;;;;10178105;29;20051;-84
2023/03/21 00:56:04;;;;;;;1.95;1.08;;;;;;;;;;10197274;29;20050;-84
2023/03/21 01:01:08;;;;;;;1.85;1.00;;;;;;;;;;10206250;29;20078;-84
2023/03/21 01:06:18;;;;;;;2.13;0.93;;;;;;;;;;10180396;29;20054;-84
2023/03/21 01:11:23;;;;;;;3.75;1.33;;;;;;;;;;10191800;29;20051;-85
2023/03/21 01:16:27;;;;;;;3.90;1.20;;;;;;;;;;10172419;29;20047;-84
2023/03/21 01:21:33;;;;;;;1.17;0.95;;;;;;;;;;10201574;29;20055;-85
2023/03/21 01:26:37;;;;;;;3.30;1.17;;;;;;;;;;10178536;29;20040;-84
2023/03/21 01:31:40;;;;;;;1.88;1.00;;;;;;;;;;10206551;29;20346;-85
2023/03/21 01:36:45;;;;;;;1.33;0.90;;;;;;;;;;10179573;29;20040;-84
2023/03/21 01:41:53;;;;;;;3.92;1.48;;;;;;;;;;10189808;29;20047;-85
2023/03/21 01:47:00;;;;;;;2.17;0.98;;;;;;;;;;10184553;29;20043;-85
2023/03/21 01:52:24;;;;;;;1.52;0.85;;;;;;;;;;10204141;28;20047;-84
2023/03/21 01:57:52;;;;;;;1.10;0.73;;;;;;;;;;10188718;29;20046;-86
2023/03/21 02:03:15;;;;;;;2.05;1.00;;;;;;;;;;10189944;29;20054;-87
2023/03/21 02:08:36;;;;;;;0.93;0.77;;;;;;;;;;10202580;29;20131;-87
2023/03/21 02:13:46;;;;;;;1.20;1.00;;;;;;;;;;10202678;29;20138;-88
2023/03/21 02:18:59;;;;;;;2.45;1.00;;;;;;;;;;10205141;29;20039;-86
2023/03/21 02:24:39;;;;;;;2.95;1.40;;;;;;;;;;10201194;29;20047;-87
2023/03/21 02:30:27;;;;;;;2.53;1.10;;;;;;;;;;10200095;29;20552;-87
2023/03/21 02:35:50;;;;;;;0.85;0.75;;;;;;;;;;10162725;29;20064;-86
2023/03/21 02:41:05;;;;;;;2.80;1.20;;;;;;;;;;10200375;29;20049;-87
2023/03/21 02:46:18;;;;;;;2.10;1.30;;;;;;;;;;10195930;29;20070;-87
2023/03/21 02:51:25;;;;;;;2.28;0.82;;;;;;;;;;10183353;29;20048;-87
2023/03/21 02:56:32;;;;;;;2.58;0.85;;;;;;;;;;10178347;29;20055;-87
2023/03/21 03:01:36;;;;;;;1.27;0.77;;;;;;;;;;10179335;29;20048;-87
2023/03/21 03:06:48;;;;;;;1.70;0.95;;;;;;;;;;10180781;29;20048;-87
2023/03/21 03:12:01;;;;;;;1.98;0.90;;;;;;;;;;10199088;29;20107;-87
2023/03/21 03:17:16;;;;;;;2.05;1.20;;;;;;;;;;10221520;29;20102;-87
2023/03/21 03:22:25;;;;;;;3.83;0.98;;;;;;;;;;10208492;29;20051;-86
2023/03/21 03:27:36;;;;;;;2.15;0.95;;;;;;;;;;10182579;29;20044;-85
2023/03/21 03:32:45;;;;;;;2.22;1.17;;;;;;;;;;10199628;29;20052;-84
2023/03/21 03:37:53;;;;;;;3.30;1.30;;;;;;;;;;10185011;29;20134;-85
2023/03/21 03:43:02;;;;;;;3.28;1.20;;;;;;;;;;10175861;29;20075;-85
2023/03/21 03:48:18;;;;;;;3.65;1.50;;;;;;;;;;10195863;29;20047;-85
2023/03/21 03:53:25;;;;;;;2.70;1.15;;;;;;;;;;10166645;29;20048;-87
2023/03/21 03:58:34;;;;;;;3.13;1.30;;;;;;;;;;10184278;28;20054;-88
2023/03/21 04:03:49;;;;;;;3.80;1.63;;;;;;;;;;10197134;28;20128;-88
2023/03/21 04:08:59;;;;;;;3.03;1.35;;;;;;;;;;10210976;29;20515;-87
2023/03/21 04:14:08;;;;;;;1.42;1.20;;;;;;;;;;10172444;29;20048;-87
2023/03/21 04:19:12;;;;;;;1.98;1.35;;;;;;;;;;10177303;29;20055;-87
2023/03/21 04:24:16;;;;;;;2.50;1.60;;;;;;;;;;10173035;28;20076;-87
2023/03/21 04:29:24;;;;;;;4.45;1.38;;;;;;;;;;10174225;29;20043;-87
2023/03/21 04:35:03;;;;;;;2.55;1.40;;;;;;;;;;10122748;29;20051;-87
2023/03/21 04:40:10;;;;;;;1.60;1.10;;;;;;;;;;10202892;29;20039;-89
2023/03/21 04:45:15;;;;;;;3.10;1.17;;;;;;;;;;10188177;29;20052;-86
2023/03/21 04:50:21;;;;;;;2.33;1.17;;;;;;;;;;10173972;29;20082;-87
2023/03/21 04:55:26;;;;;;;3.58;1.23;;;;;;;;;;10189054;29;20162;-88
2023/03/21 05:00:36;;;;;;;4.25;1.70;;;;;;;;;;10181431;29;20063;-87
2023/03/21 05:05:40;;;;;;;3.65;1.90;;;;;;;;;;10169937;29;20068;-87
2023/03/21 05:10:44;;;;;;;2.78;1.77;;;;;;;;;;10196953;29;20188;-89
2023/03/21 05:15:49;;;;;;;3.10;1.67;;;;;;;;;;10178895;29;20058;-85
2023/03/21 05:20:54;;;;;;;4.07;1.40;;;;;;;;;;10210082;29;20048;-85
2023/03/21 05:25:58;;;;;;;3.17;1.63;;;;;;;;;;10189817;29;20047;-85
2023/03/21 05:31:16;;;;;;;2.75;1.58;;;;;;;;;;10210169;29;20066;-86
2023/03/21 05:36:23;;;;;;;4.53;1.40;;;;;;;;;;10187502;29;20104;-85
2023/03/21 05:41:27;;;;;;;3.28;1.20;;;;;;;;;;10194307;29;20050;-85
2023/03/21 05:46:32;;;;;;;3.28;1.30;;;;;;;;;;10198389;29;20043;-86
2023/03/21 05:51:38;;;;;;;3.30;1.27;;;;;;;;;;10200815;29;20059;-86
2023/03/21 05:56:42;;;;;;;3.63;1.48;;;;;;;;;;10201857;29;20056;-86
2023/03/21 06:01:51;;;;;;;2.45;1.60;;;;;;;;;;10202836;29;20044;-84
2023/03/21 06:06:54;;;;;;;4.07;1.40;;;;;;;;;;10204373;29;20061;-85
2023/03/21 06:11:59;;;;;;;2.15;1.17;;;;;;;;;;10188100;29;20103;-85
2023/03/21 06:17:04;;;;;;;3.05;1.30;;;;;;;;;;10210111;29;20050;-85
2023/03/21 06:22:11;;;;;;;2.70;1.55;;;;;;;;;;10226366;29;20059;-85
2023/03/21 06:27:16;;;;;;;5.82;1.55;;;;;;;;;;10203303;29;20074;-85
2023/03/21 06:32:27;;;;;;;2.67;1.15;;;;;;;;;;10189286;29;20048;-86
2023/03/21 06:37:36;;;;;;;4.70;1.35;;;;;;;;;;10193907;29;20047;-86
2023/03/21 06:42:40;;;;;;;1.15;0.80;;;;;;;;;;10195542;29;20135;-84
2023/03/21 06:47:47;;;;;;;2.45;1.00;;;;;;;;;;10221730;29;20261;-85
2023/03/21 06:53:02;;;;;;;3.80;1.40;;;;;;;;;;10202176;29;20054;-85
2023/03/21 06:58:11;;;;;;;2.53;1.23;;;;;;;;;;10220096;29;20044;-86
2023/03/21 07:03:18;;;;;;;4.15;1.70;;;;;;;;;;10199793;29;20091;-86
2023/03/21 07:08:22;;;;;;;1.65;1.23;;;;;;;;;;10191116;29;20047;-84
2023/03/21 07:13:26;;;;;;;3.63;1.38;;;;;;;;;;10184349;29;20551;-86
2023/03/21 07:18:38;;;;;;;3.42;1.17;;;;;;;;;;10179534;29;20520;-88
2023/03/21 07:23:41;;;;;;;3.08;1.15;;;;;;;;;;10169534;29;20471;-87
2023/03/21 07:28:45;;;;;;;3.38;1.30;;;;;;;;;;10174907;29;20122;-85
2023/03/21 07:33:50;;;;;;;2.15;1.05;;;;;;;;;;10195974;28;20110;-85
2023/03/21 07:38:53;;;;;;;2.20;1.08;;;;;;;;;;10179844;29;20043;-85
2023/03/21 07:43:59;;;;;;;9.07;2.28;;;;;;;;;;10179382;29;20048;-85
2023/03/21 07:49:09;;;;;;;3.25;1.58;;;;;;;;;;10193706;29;20099;-86
2023/03/21 07:54:13;;;;;;;7.65;2.38;;;;;;;;;;10185230;29;20055;-86
2023/03/21 07:59:16;;;;;;;3.58;1.20;;;;;;;;;;10162638;29;20047;-86
2023/03/21 08:04:21;;;;;;;2.83;1.30;;;;;;;;;;10166179;29;20420;-86
2023/03/21 08:09:24;;;;;;;3.53;1.23;;;;;;;;;;10171145;29;20072;-85
2023/03/21 08:14:28;;;;;;;3.20;1.15;;;;;;;;;;10172009;29;20048;-86
2023/03/21 08:19:33;;;;;;;3.30;1.30;;;;;;;;;;10186771;29;20036;-86
2023/03/21 08:24:36;;;;;;;1.98;0.93;;;;;;;;;;10188111;29;20047;-85
2023/03/21 08:29:41;;;;;;;2.78;1.17;;;;;;;;;;10200983;29;20046;-86
2023/03/21 08:34:46;;;;;;;1.55;1.17;;;;;;;;;;10165010;29;20067;-86
2023/03/21 08:39:49;;;;;;;2.22;1.27;;;;;;;;;;10184575;29;20514;-86
2023/03/21 08:44:53;;;;;;;1.27;0.98;;;;;;;;;;10187860;29;20094;-86
2023/03/21 08:49:58;;;;;;;1.65;1.08;;;;;;;;;;10189763;29;20039;-85
2023/03/21 08:55:02;;;;;;;2.28;0.93;;;;;;;;;;10190720;29;20266;-85
2023/03/21 09:00:11;;;;;;;2.25;1.10;;;;;;;;;;10184188;29;20495;-90
2023/03/21 09:05:17;;;;;;;3.15;0.90;;;;;;;;;;10159753;29;20051;-88
2023/03/21 09:10:23;;;;;;;2.17;0.80;;;;;;;;;;10173094;29;20099;-88
2023/03/21 09:15:28;;;;;;;1.23;1.00;;;;;;;;;;10167914;29;20134;-88
2023/03/21 09:20:37;;;;;;;2.80;1.02;;;;;;;;;;10168149;29;20167;-88
2023/03/21 09:25:41;;;;;;;2.80;1.10;;;;;;;;;;10177716;29;20077;-88
2023/03/21 09:30:44;;;;;;;1.52;0.98;;;;;;;;;;10184480;29;20043;-88
2023/03/21 09:35:49;;;;;;;3.10;1.30;;;;;;;;;;10184203;29;20209;-88
2023/03/21 09:41:08;;;;;;;2.45;1.15;;;;;;;;;;10180944;29;20503;-89
2023/03/21 09:46:21;;;;;;;2.05;0.93;;;;;;;;;;10170956;29;20048;-90
2023/03/21 09:51:31;;;;;;;1.80;1.08;;;;;;;;;;10175633;29;20523;-90
2023/03/21 09:56:36;;;;;;;2.90;1.10;;;;;;;;;;10197499;29;20067;-90
2023/03/21 10:01:44;;;;;;;2.40;0.95;;;;;;;;;;10200760;29;20044;-90
2023/03/21 10:06:58;;;;;;;3.40;1.25;;;;;;;;;;10197037;29;20396;-90
2023/03/21 10:12:06;;;;;;;2.75;0.98;;;;;;;;;;10187479;29;20629;-90
2023/03/21 10:17:19;;;;;;;3.00;1.30;;;;;;;;;;10200161;29;20052;-90
2023/03/21 10:22:24;;;;;;;2.72;0.88;;;;;;;;;;10182891;29;20139;-90
2023/03/21 10:27:28;;;;;;;1.40;0.82;;;;;;;;;;10200746;29;20052;-90
2023/03/21 10:32:31;;;;;;;1.95;1.00;;;;;;;;;;10182057;29;20127;-86
2023/03/21 10:37:36;;;;;;;2.70;0.80;;;;;;;;;;10174793;29;20134;-87
2023/03/21 10:42:41;;;;;;;1.85;0.82;;;;;;;;;;10198758;29;20130;-86
2023/03/21 10:47:48;;;;;;;1.58;0.85;;;;;;;;;;10210410;29;20071;-87
2023/03/21 10:52:59;;;;;;;3.28;1.50;;;;;;;;;;10673792;23;20094;-88
2023/03/21 10:58:07;;;;;;;1.48;0.80;;;;;;;;;;10153252;29;20048;-87
2023/03/21 11:03:21;;;;;;;1.70;0.80;;;;;;;;;;10180234;29;20096;-87
2023/03/21 11:08:27;;;;;;;1.15;0.77;;;;;;;;;;10160375;29;20194;-87
2023/03/21 11:13:37;;;;;;;1.93;1.10;;;;;;;;;;10117480;29;20144;-87
2023/03/21 11:18:56;;;;;;;4.97;1.60;;;;;;;;;;10114700;29;20135;-88
2023/03/21 11:24:06;;;;;;;4.78;2.90;;;;;;;;;;10154469;29;20059;-85
2023/03/21 11:29:14;;;;;;;;;;;;;;;;;;10151989;29;20500;-86
2023/03/21 11:34:27;;;;;;;2.65;1.27;;;;;;;;;;10146198;29;19930;-85
2023/03/21 11:39:38;;;;;;;2.10;1.13;;;;;;;;;;10145514;29;20104;-85
2023/03/21 11:44:44;;;;;;;2.17;1.30;;;;;;;;;;10159365;29;20362;-86
2023/03/21 11:49:48;;;;;;;1.33;0.93;;;;;;;;;;10150001;29;20047;-88
2023/03/21 11:55:17;;;;;;;2.77;1.17;;;;;;;;;;10181760;29;20040;-87
2023/03/21 12:00:26;;;;;;;1.70;1.05;;;;;;;;;;10217548;29;20070;-87
2023/03/21 12:05:32;;;;;;;4.50;1.70;;;;;;;;;;10191944;29;20048;-87
2023/03/21 12:10:46;;;;;;;2.88;1.38;;;;;;;;;;10196095;29;20040;-86
2023/03/21 12:15:58;;;;;;;3.78;1.90;;;;;;;;;;10187470;29;20047;-87
2023/03/21 12:21:05;;;;;;;2.50;1.60;;;;;;;;;;10195815;29;20039;-87
2023/03/21 12:26:23;;;;;;;3.33;1.83;;;;;;;;;;10206516;29;20047;-87
2023/03/21 12:31:36;;;;;;;4.28;1.92;;;;;;;;;;10196240;29;20043;-85
2023/03/21 12:36:52;;;;;;;2.97;1.80;;;;;;;;;;10195167;29;20040;-86
2023/03/21 12:42:10;;;;;;;6.57;2.30;;;;;;;;;;10194508;29;20048;-85
2023/03/21 12:47:17;;;;;;;2.67;2.00;;;;;;;;;;10197809;29;20052;-85
2023/03/21 12:52:25;;;;;;;2.17;1.45;;;;;;;;;;10185850;29;20047;-86
2023/03/21 12:57:35;;;;;;;4.57;2.20;;;;;;;;;;10178424;29;20406;-84
2023/03/21 13:02:45;;;;;;;4.38;2.05;;;;;;;;;;10184962;29;20054;-85
2023/03/21 13:07:50;;;;;;;;;;;;;;;;;;10188118;29;20044;-85
2023/03/21 13:13:06;;;;;;;4.65;2.20;;;;;;;;;;10182980;29;19930;-85
2023/03/21 13:18:13;;;;;;;;;;;;;;;;;;10197162;29;20411;-85
2023/03/21 13:23:19;;;;;;;4.28;2.15;;;;;;;;;;10201861;29;19923;-84
2023/03/21 13:28:27;;;;;;;5.20;2.33;;;;;;;;;;10178826;29;20059;-85
2023/03/21 13:33:33;;;;;;;3.13;1.92;;;;;;;;;;10180798;29;20128;-85
2023/03/21 13:38:38;;;;;;;4.00;2.22;;;;;;;;;;10211774;29;20520;-85
2023/03/21 13:43:52;;;;;;;5.50;2.30;;;;;;;;;;10201747;29;21363;-85
2023/03/21 13:48:59;;;;;;;4.25;2.35;;;;;;;;;;10175937;29;20047;-86
2023/03/21 13:54:05;;;;;;;5.80;2.60;;;;;;;;;;10191505;29;20048;-85
2023/03/21 13:59:12;;;;;;;4.22;2.70;;;;;;;;;;10202425;29;20080;-85
2023/03/21 14:04:18;;;;;;;2.97;2.13;;;;;;;;;;10189606;29;20048;-86
2023/03/21 14:09:26;;;;;;;3.85;2.40;;;;;;;;;;10191421;29;20056;-85
2023/03/21 14:14:38;;;;;;;4.13;2.33;;;;;;;;;;10182781;29;20047;-85
2023/03/21 14:19:43;;;;;;;4.22;1.30;;;;;;;;;;10188445;29;20062;-86
2023/03/21 14:24:54;;;;;;;3.17;1.88;;;;;;;;;;10178190;29;20048;-85
2023/03/21 14:30:02;;;;;;;2.65;1.90;;;;;;;;;;10194161;29;20065;-87
2023/03/21 14:35:12;;;;;;;3.00;1.77;;;;;;;;;;10191443;29;20427;-84
2023/03/21 14:40:21;;;;;;;2.50;1.77;;;;;;;;;;10199461;29;20047;-85
2023/03/21 14:45:29;;;;;;;1.33;1.20;;;;;;;;;;10191361;29;20127;-85
2023/03/21 14:50:39;;;;;;;2.42;1.42;;;;;;;;;;10188962;28;20083;-85
2023/03/21 14:55:45;;;;;;;1.52;1.30;;;;;;;;;;10192783;29;20122;-86
2023/03/21 15:00:51;;;;;;;;;;;;;;;;;;10194225;29;20511;-85
2023/03/21 15:06:13;;;;;;;1.30;0.93;;;;;;;;;;10195122;29;19923;-86
2023/03/21 15:11:28;;;;;;;1.70;1.33;;;;;;;;;;10182465;29;20040;-85
2023/03/21 15:16:34;;;;;;;4.18;2.08;;;;;;;;;;10187932;29;20043;-85
2023/03/21 15:21:41;;;;;;;5.20;2.35;;;;;;;;;;10205489;29;20043;-86
2023/03/21 15:26:46;;;;;;;3.00;2.58;;;;;;;;;;10204687;29;20054;-86
2023/03/21 15:31:51;;;;;;;3.23;2.47;;;;;;;;;;10188109;29;20047;-85
2023/03/21 15:36:57;;;;;;;4.00;2.90;;;;;;;;;;10216049;29;20075;-86
2023/03/21 15:42:04;;;;;;;4.05;3.03;;;;;;;;;;10204343;29;20140;-86
2023/03/21 15:47:14;;;;;;;5.30;2.38;;;;;;;;;;10180177;29;20436;-86
2023/03/21 15:52:18;;;;;;;3.40;2.60;;;;;;;;;;10189480;29;20051;-86
2023/03/21 15:57:24;;;;;;;2.17;1.98;;;;;;;;;;10184832;29;20052;-87
2023/03/21 16:02:30;;;;;;;2.45;2.08;;;;;;;;;;10166306;29;20043;-87
2023/03/21 16:07:34;;;;;;;2.78;2.10;;;;;;;;;;10182480;29;20448;-87
2023/03/21 16:12:38;;;;;;;2.72;1.98;;;;;;;;;;10181557;29;20044;-85
2023/03/21 16:17:50;;;;;;;4.82;2.38;;;;;;;;;;10181428;29;20063;-85
2023/03/21 16:22:54;;;;;;;3.90;2.50;;;;;;;;;;10200806;29;20048;-85
2023/03/21 16:27:58;;;;;;;3.85;2.42;;;;;;;;;;10184386;29;20051;-85
2023/03/21 16:33:03;;;;;;;3.53;2.80;;;;;;;;;;10191368;29;20047;-85
2023/03/21 16:38:06;;;;;;;3.95;2.90;;;;;;;;;;10193859;29;20648;-85
2023/03/21 16:43:11;;;;;;;3.78;2.50;;;;;;;;;;10178718;29;20066;-85
2023/03/21 16:48:17;;;;;;;3.15;2.45;;;;;;;;;;10181882;29;20201;-84
2023/03/21 16:53:20;;;;;;;;;;;;;;;;;;10218367;23;20043;-84
2023/03/21 16:58:25;;;;;;;3.75;2.30;;;;;;;;;;10192170;29;20037;-87
2023/03/21 17:03:33;;;;;;;5.90;3.03;;;;;;;;;;10184584;29;20042;-86
2023/03/21 17:08:36;;;;;;;3.95;3.00;;;;;;;;;;10211515;29;20039;-88
2023/03/21 17:13:39;;;;;;;2.20;1.98;;;;;;;;;;10206910;29;20052;-88
2023/03/21 17:18:45;;;;;;;3.83;2.38;;;;;;;;;;10194062;29;20071;-87
2023/03/21 17:23:49;;;;;;;3.22;2.20;;;;;;;;;;10182677;29;20400;-87
2023/03/21 17:28:53;;;;;;;2.20;1.80;;;;;;;;;;10205214;29;20044;-87
2023/03/21 17:33:59;;;;;;;2.35;1.80;;;;;;;;;;10179745;29;20056;-87
2023/03/21 17:39:05;;;;;;;2.03;1.67;;;;;;;;;;10189387;29;20140;-85
2023/03/21 17:44:09;;;;;;;2.65;1.90;;;;;;;;;;10204460;29;20552;-86
2023/03/21 17:49:15;;;;;;;2.75;1.75;;;;;;;;;;10191663;29;20068;-88
2023/03/21 17:54:19;;;;;;;2.03;1.80;;;;;;;;;;10205314;29;20067;-83
2023/03/21 17:59:24;;;;;;;2.13;1.73;;;;;;;;;;10196024;29;20605;-84
2023/03/21 18:04:29;;;;;;;2.72;2.15;;;;;;;;;;10199126;29;20127;-84
2023/03/21 18:09:33;;;;;;;4.40;1.73;;;;;;;;;;10213707;29;20059;-84
2023/03/21 18:14:36;;;;;;;1.63;1.48;;;;;;;;;;10195762;29;20067;-84
2023/03/21 18:19:44;;;;;;;;;;;;;;;;;;10196778;29;20104;-84
2023/03/21 18:24:48;;;;;;;1.83;1.23;;;;;;;;;;10191281;29;19922;-84
2023/03/21 18:29:52;;;;;;;2.40;1.92;;;;;;;;;;10186457;29;20134;-83
2023/03/21 18:35:19;;;;;;;2.50;1.55;;;;;;;;;;10199258;29;20044;-83
2023/03/21 18:40:23;;;;;;;3.60;2.03;;;;;;;;;;10178938;29;20455;-84
2023/03/21 18:45:27;;;;;;;4.75;2.25;;;;;;;;;;10204196;28;20047;-84
2023/03/21 18:50:32;;;;;;;3.78;2.58;;;;;;;;;;10194807;29;20427;-84
2023/03/21 18:55:35;;;;;;;4.47;3.00;;;;;;;;;;10193132;29;20059;-84
2023/03/21 19:00:49;;;;;;;3.67;2.58;;;;;;;;;;10203151;29;20063;-83
2023/03/21 19:05:58;;;;;;;3.65;2.53;;;;;;;;;;10195101;29;20044;-83
2023/03/21 19:11:02;;;;;;;5.35;3.45;;;;;;;;;;10196509;29;20052;-84
2023/03/21 19:16:08;;;;;;;3.50;2.65;;;;;;;;;;10194638;29;20562;-83
2023/03/21 19:21:15;;;;;;;3.17;2.33;;;;;;;;;;10178287;29;20043;-84
2023/03/21 19:26:19;;;;;;;6.30;2.73;;;;;;;;;;10181265;29;20183;-84
2023/03/21 19:31:23;;;;;;;3.40;2.15;;;;;;;;;;10183883;29;20052;-84
2023/03/21 19:36:28;;;;;;;2.65;2.08;;;;;;;;;;10170994;29;20423;-84
2023/03/21 19:41:31;;;;;;;5.40;2.58;;;;;;;;;;10197413;29;20052;-84
2023/03/21 19:46:35;;;;;;;4.03;2.63;;;;;;;;;;10199731;29;20509;-84
2023/03/21 19:51:40;;;;;;;3.35;2.55;;;;;;;;;;10182990;29;20594;-83
2023/03/21 19:56:44;;;;;;;5.13;3.17;;;;;;;;;;10200781;29;20147;-85
2023/03/21 20:01:50;;;;;;;6.28;4.28;;;;;;;;;;10189010;29;20044;-85
2023/03/21 20:07:00;;;;;;;4.32;3.17;;;;;;;;;;10179596;29;20147;-83
2023/03/21 20:12:04;;;;;;;5.60;3.45;;;;;;;;;;10195050;29;20130;-83
2023/03/21 20:17:07;;;;;;;3.67;2.92;;;;;;;;;;10196571;29;20475;-84
2023/03/21 20:22:12;;;;;;;3.58;2.80;;;;;;;;;;10193007;29;20047;-83
2023/03/21 20:27:29;;;;;;;3.28;2.75;;;;;;;;;;10209431;29;20047;-84
2023/03/21 20:32:33;;;;;;;4.53;2.63;;;;;;;;;;10199936;29;20586;-83
2023/03/21 20:37:38;;;;;;;4.05;2.90;;;;;;;;;;10208821;29;20139;-82
2023/03/21 20:42:42;;;;;;;3.90;2.57;;;;;;;;;;10200727;29;20061;-83
2023/03/21 20:47:47;;;;;;;4.57;2.35;;;;;;;;;;10203342;29;20134;-82
2023/03/21 20:52:52;;;;;;;3.72;2.40;;;;;;;;;;10187766;29;20518;-83
2023/03/21 20:58:12;;;;;;;3.55;2.40;;;;;;;;;;10200962;29;20143;-83
2023/03/21 21:03:38;;;;;;;3.78;2.42;;;;;;;;;;10194792;29;20040;-83
2023/03/21 21:08:44;;;;;;;3.85;2.33;;;;;;;;;;10194384;29;20044;-84
2023/03/21 21:13:47;;;;;;;4.68;2.83;;;;;;;;;;10187078;29;20036;-84
2023/03/21 21:18:51;;;;;;;2.45;1.85;;;;;;;;;;10186629;29;20689;-85
2023/03/21 21:23:57;;;;;;;4.15;1.77;;;;;;;;;;10167578;29;20071;-84
2023/03/21 21:29:00;;;;;;;3.60;2.20;;;;;;;;;;10194502;29;20047;-84
2023/03/21 21:34:04;;;;;;;2.00;1.55;;;;;;;;;;10193824;29;20059;-84
2023/03/21 21:39:09;;;;;;;2.05;1.85;;;;;;;;;;10190109;29;20119;-84
2023/03/21 21:44:18;;;;;;;1.50;1.40;;;;;;;;;;10202902;29;20047;-84
2023/03/21 21:49:21;;;;;;;2.38;1.42;;;;;;;;;;10201749;29;20055;-84
2023/03/21 21:54:28;;;;;;;2.53;1.48;;;;;;;;;;10195941;29;20059;-84
2023/03/21 21:59:32;;;;;;;2.92;1.63;;;;;;;;;;10201749;29;20761;-83
2023/03/21 22:04:36;;;;;;;2.45;1.48;;;;;;;;;;10183128;29;20036;-82
2023/03/21 22:09:41;;;;;;;1.75;1.13;;;;;;;;;;10175772;29;20068;-83
2023/03/21 22:14:44;;;;;;;1.67;1.52;;;;;;;;;;10186679;29;20120;-83
2023/03/21 22:19:48;;;;;;;1.90;1.50;;;;;;;;;;10196919;29;20057;-82
2023/03/21 22:25:10;;;;;;;2.08;1.40;;;;;;;;;;10198223;29;20044;-83
2023/03/21 22:30:16;;;;;;;1.92;1.30;;;;;;;;;;10203301;29;20052;-83
2023/03/21 22:35:19;;;;;;;3.53;2.03;;;;;;;;;;10208862;29;20710;-84
2023/03/21 22:40:24;;;;;;;2.20;1.48;;;;;;;;;;10178272;29;20054;-83
2023/03/21 22:45:28;;;;;;;3.75;1.58;;;;;;;;;;10191836;29;20126;-83
2023/03/21 22:50:31;;;;;;;2.85;1.80;;;;;;;;;;10182606;29;20044;-84
2023/03/21 22:55:36;;;;;;;2.38;1.85;;;;;;;;;;10200417;29;20074;-82
2023/03/21 23:00:39;;;;;;;3.25;1.90;;;;;;;;;;10190818;29;20127;-83
2023/03/21 23:05:44;;;;;;;5.53;2.55;;;;;;;;;;10194156;29;20415;-82
2023/03/21 23:10:49;;;;;;;4.97;2.72;;;;;;;;;;10183799;29;20052;-84
2023/03/21 23:15:53;;;;;;;6.18;2.92;;;;;;;;;;10196997;29;20063;-84
2023/03/21 23:20:57;;;;;;;4.00;2.42;;;;;;;;;;10177028;29;20054;-82
2023/03/21 23:26:01;;;;;;;3.90;1.95;;;;;;;;;;10199393;29;20107;-83
2023/03/21 23:31:09;;;;;;;3.75;2.30;;;;;;;;;;10193793;29;20054;-82
2023/03/21 23:36:14;;;;;;;3.00;2.22;;;;;;;;;;10197432;29;20040;-83
2023/03/21 23:41:21;;;;;;;3.83;2.28;;;;;;;;;;10182904;29;20146;-84
2023/03/21 23:46:24;;;;;;;4.50;2.28;;;;;;;;;;10173679;29;20135;-83
2023/03/21 23:51:28;;;;;;;2.20;1.77;;;;;;;;;;10186249;29;20629;-82
2023/03/21 23:56:33;;;;;;;2.58;1.77;;;;;;;;;;10187487;29;20051;-83
